Observations for SHOREHAM-BY-SEA, United Kingdom (EGKA)

EGKA 130850Z 11018G28KT 9999 SCT024 06/00 Q1015 
EGKA 130820Z 11020G30KT 9999 SCT023 05/01 Q1015 
EGKA 130750Z 11019G29KT 9999 FEW024 05/01 Q1015 
EGKA 121920Z 13012G22KT 9999 SCT037 07/M01 Q1019
EGKA 121850Z 12013KT 9999 SCT037 06/M00 Q1020   
EGKA 121820Z 12014KT 9999 SCT035 07/M00 Q1020   
EGKA 121750Z 12012KT 9999 SCT035 07/00 Q1020
EGKA 121720Z 13011G21KT 9999 SCT033 06/M01 Q1020
EGKA 121650Z 12010G20KT 9999 FEW033 06/M01 Q1020
EGKA 121620Z 12013G23KT 9999 FEW033 06/M01 Q1020
EGKA 121550Z 13014G25KT 9999 FEW033 06/M00 Q1020
EGKA 121520Z 13015G25KT 9999 FEW033 07/00 Q1020 
EGKA 121450Z 12014KT 9999 SCT033 07/01 Q1021
EGKA 121420Z 11013KT 9999 SCT033 07/01 Q1021
EGKA 121350Z 11014KT 9999 SCT033 07/01 Q1021
EGKA 121320Z 11015KT 9999 SCT020 07/01 Q1021
EGKA 121250Z 12012KT 9999 SCT029 07/01 Q1022
EGKA 121220Z 10012KT 9999 FEW025 SCT032 07/01 Q1022 
EGKA 121150Z 12010KT 9999 FEW025 SCT032 08/03 Q1022 
EGKA 121120Z 12011KT 9999 FEW028 SCT037 08/02 Q1022 
EGKA 121050Z 14009KT 9999 FEW028 BKN037 08/02 Q1022 
EGKA 121020Z 14014KT 9999 FEW028 BKN035 08/03 Q1022 
EGKA 120950Z 13000KT 9999 FEW026 BKN037 08/03 Q1022 
EGKA 120920Z 13010KT 9999 FEW020 BKN037 08/04 Q1022 
EGKA 120850Z 14011KT 9999 SCT020 BKN033 08/04 Q1022